sensor_id;sensor_type;location;lat;lon;timestamp;P1;durP1;ratioP1;P2;durP2;ratioP2
65597;SDS011;52267;51.984;20.956;2023-06-22T00:01:20;25.60;;;22.70;;
65597;SDS011;52267;51.984;20.956;2023-06-22T00:03:49;26.20;;;22.60;;
65597;SDS011;52267;51.984;20.956;2023-06-22T00:06:16;25.90;;;22.00;;
65597;SDS011;52267;51.984;20.956;2023-06-22T00:08:43;24.70;;;21.90;;
65597;SDS011;52267;51.984;20.956;2023-06-22T00:11:10;25.60;;;22.10;;
65597;SDS011;52267;51.984;20.956;2023-06-22T00:13:38;24.50;;;21.50;;
65597;SDS011;52267;51.984;20.956;2023-06-22T00:16:05;28.40;;;22.10;;
65597;SDS011;52267;51.984;20.956;2023-06-22T00:18:32;23.40;;;20.40;;
65597;SDS011;52267;51.984;20.956;2023-06-22T00:21:00;24.00;;;21.20;;
65597;SDS011;52267;51.984;20.956;2023-06-22T00:23:27;25.30;;;21.70;;
65597;SDS011;52267;51.984;20.956;2023-06-22T00:25:54;26.80;;;21.50;;
65597;SDS011;52267;51.984;20.956;2023-06-22T00:28:21;25.00;;;22.30;;
65597;SDS011;52267;51.984;20.956;2023-06-22T00:30:49;24.70;;;21.90;;
65597;SDS011;52267;51.984;20.956;2023-06-22T00:33:16;23.70;;;20.70;;
65597;SDS011;52267;51.984;20.956;2023-06-22T00:35:43;26.00;;;21.40;;
65597;SDS011;52267;51.984;20.956;2023-06-22T00:38:11;23.00;;;20.40;;
65597;SDS011;52267;51.984;20.956;2023-06-22T00:40:38;23.30;;;20.90;;
65597;SDS011;52267;51.984;20.956;2023-06-22T00:43:06;25.00;;;21.50;;
65597;SDS011;52267;51.984;20.956;2023-06-22T00:45:33;24.30;;;21.30;;
65597;SDS011;52267;51.984;20.956;2023-06-22T00:48:00;23.40;;;20.60;;
65597;SDS011;52267;51.984;20.956;2023-06-22T00:50:30;26.10;;;21.40;;
65597;SDS011;52267;51.984;20.956;2023-06-22T00:53:11;24.60;;;21.70;;
65597;SDS011;52267;51.984;20.956;2023-06-22T00:55:41;24.60;;;21.00;;
65597;SDS011;52267;51.984;20.956;2023-06-22T00:58:13;23.60;;;21.00;;
65597;SDS011;52267;51.984;20.956;2023-06-22T01:00:41;25.50;;;21.90;;
65597;SDS011;52267;51.984;20.956;2023-06-22T01:03:08;25.00;;;21.80;;
65597;SDS011;52267;51.984;20.956;2023-06-22T01:05:36;26.80;;;21.90;;
65597;SDS011;52267;51.984;20.956;2023-06-22T01:08:21;24.60;;;21.10;;
65597;SDS011;52267;51.984;20.956;2023-06-22T01:11:10;24.90;;;20.00;;
65597;SDS011;52267;51.984;20.956;2023-06-22T01:16:27;26.50;;;21.70;;
65597;SDS011;52267;51.984;20.956;2023-06-22T01:19:05;27.40;;;21.70;;
65597;SDS011;52267;51.984;20.956;2023-06-22T01:21:42;26.00;;;21.90;;
65597;SDS011;52267;51.984;20.956;2023-06-22T01:24:33;26.30;;;21.40;;
65597;SDS011;52267;51.984;20.956;2023-06-22T01:27:36;27.20;;;22.00;;
65597;SDS011;52267;51.984;20.956;2023-06-22T01:30:13;29.10;;;22.10;;
65597;SDS011;52267;51.984;20.956;2023-06-22T01:32:43;27.30;;;21.50;;
65597;SDS011;52267;51.984;20.956;2023-06-22T01:35:10;26.70;;;22.10;;
65597;SDS011;52267;51.984;20.956;2023-06-22T01:37:39;27.30;;;22.30;;
65597;SDS011;52267;51.984;20.956;2023-06-22T01:40:07;28.00;;;23.70;;
65597;SDS011;52267;51.984;20.956;2023-06-22T01:42:36;28.90;;;24.70;;
65597;SDS011;52267;51.984;20.956;2023-06-22T01:45:05;28.30;;;23.40;;
65597;SDS011;52267;51.984;20.956;2023-06-22T01:47:33;28.50;;;23.30;;
65597;SDS011;52267;51.984;20.956;2023-06-22T01:50:01;25.60;;;22.60;;
65597;SDS011;52267;51.984;20.956;2023-06-22T01:52:28;27.80;;;22.90;;
65597;SDS011;52267;51.984;20.956;2023-06-22T01:54:55;28.50;;;24.50;;
65597;SDS011;52267;51.984;20.956;2023-06-22T01:57:24;28.10;;;23.20;;
65597;SDS011;52267;51.984;20.956;2023-06-22T02:02:33;27.80;;;23.70;;
65597;SDS011;52267;51.984;20.956;2023-06-22T02:05:23;28.40;;;24.00;;
65597;SDS011;52267;51.984;20.956;2023-06-22T02:10:37;29.00;;;24.20;;
65597;SDS011;52267;51.984;20.956;2023-06-22T02:13:08;28.70;;;22.70;;
65597;SDS011;52267;51.984;20.956;2023-06-22T02:15:36;29.80;;;23.70;;
65597;SDS011;52267;51.984;20.956;2023-06-22T02:18:04;27.00;;;22.60;;
65597;SDS011;52267;51.984;20.956;2023-06-22T02:20:31;27.00;;;22.40;;
65597;SDS011;52267;51.984;20.956;2023-06-22T02:22:58;26.20;;;21.60;;
65597;SDS011;52267;51.984;20.956;2023-06-22T02:25:26;26.90;;;21.80;;
65597;SDS011;52267;51.984;20.956;2023-06-22T02:27:53;26.10;;;22.20;;
65597;SDS011;52267;51.984;20.956;2023-06-22T02:30:20;25.90;;;21.60;;
65597;SDS011;52267;51.984;20.956;2023-06-22T02:32:47;27.30;;;22.30;;
65597;SDS011;52267;51.984;20.956;2023-06-22T02:35:14;27.80;;;23.00;;
65597;SDS011;52267;51.984;20.956;2023-06-22T02:37:41;27.60;;;23.40;;
65597;SDS011;52267;51.984;20.956;2023-06-22T02:40:08;26.10;;;22.20;;
65597;SDS011;52267;51.984;20.956;2023-06-22T02:42:37;25.40;;;22.20;;
65597;SDS011;52267;51.984;20.956;2023-06-22T02:45:04;25.50;;;22.00;;
65597;SDS011;52267;51.984;20.956;2023-06-22T02:47:32;30.90;;;22.70;;
65597;SDS011;52267;51.984;20.956;2023-06-22T02:49:59;27.50;;;22.00;;
65597;SDS011;52267;51.984;20.956;2023-06-22T02:52:27;29.30;;;23.50;;
65597;SDS011;52267;51.984;20.956;2023-06-22T02:54:54;26.10;;;22.50;;
65597;SDS011;52267;51.984;20.956;2023-06-22T02:57:21;27.50;;;23.90;;
65597;SDS011;52267;51.984;20.956;2023-06-22T02:59:48;31.30;;;24.60;;
65597;SDS011;52267;51.984;20.956;2023-06-22T03:02:15;33.60;;;26.70;;
65597;SDS011;52267;51.984;20.956;2023-06-22T03:04:42;33.40;;;26.60;;
65597;SDS011;52267;51.984;20.956;2023-06-22T03:07:10;37.90;;;28.60;;
65597;SDS011;52267;51.984;20.956;2023-06-22T03:09:37;38.40;;;29.00;;
65597;SDS011;52267;51.984;20.956;2023-06-22T03:12:04;35.20;;;27.80;;
65597;SDS011;52267;51.984;20.956;2023-06-22T03:14:31;37.10;;;29.20;;
65597;SDS011;52267;51.984;20.956;2023-06-22T03:16:58;41.60;;;31.20;;
65597;SDS011;52267;51.984;20.956;2023-06-22T03:19:29;42.50;;;31.20;;
65597;SDS011;52267;51.984;20.956;2023-06-22T03:21:59;41.60;;;31.70;;
65597;SDS011;52267;51.984;20.956;2023-06-22T03:24:27;43.30;;;32.60;;
65597;SDS011;52267;51.984;20.956;2023-06-22T03:26:56;42.10;;;31.80;;
65597;SDS011;52267;51.984;20.956;2023-06-22T03:29:23;46.30;;;33.30;;
65597;SDS011;52267;51.984;20.956;2023-06-22T03:31:51;46.60;;;34.20;;
65597;SDS011;52267;51.984;20.956;2023-06-22T03:34:18;46.60;;;34.80;;
65597;SDS011;52267;51.984;20.956;2023-06-22T03:36:45;49.00;;;34.40;;
65597;SDS011;52267;51.984;20.956;2023-06-22T03:39:12;48.30;;;34.40;;
65597;SDS011;52267;51.984;20.956;2023-06-22T03:41:39;46.70;;;33.40;;
65597;SDS011;52267;51.984;20.956;2023-06-22T03:44:06;49.80;;;35.90;;
65597;SDS011;52267;51.984;20.956;2023-06-22T03:46:37;52.70;;;37.10;;
65597;SDS011;52267;51.984;20.956;2023-06-22T03:49:04;46.60;;;33.70;;
65597;SDS011;52267;51.984;20.956;2023-06-22T03:51:32;46.00;;;34.10;;
65597;SDS011;52267;51.984;20.956;2023-06-22T03:53:59;50.30;;;35.40;;
65597;SDS011;52267;51.984;20.956;2023-06-22T03:56:26;48.90;;;33.90;;
65597;SDS011;52267;51.984;20.956;2023-06-22T03:58:53;46.90;;;34.20;;
65597;SDS011;52267;51.984;20.956;2023-06-22T04:01:20;44.00;;;33.30;;
65597;SDS011;52267;51.984;20.956;2023-06-22T04:03:47;46.50;;;33.60;;
65597;SDS011;52267;51.984;20.956;2023-06-22T04:06:16;45.10;;;31.80;;
65597;SDS011;52267;51.984;20.956;2023-06-22T04:08:45;41.90;;;30.20;;
65597;SDS011;52267;51.984;20.956;2023-06-22T04:11:17;43.50;;;30.40;;
65597;SDS011;52267;51.984;20.956;2023-06-22T04:13:45;41.00;;;31.10;;
65597;SDS011;52267;51.984;20.956;2023-06-22T04:16:12;42.40;;;30.10;;
65597;SDS011;52267;51.984;20.956;2023-06-22T04:18:39;41.10;;;29.70;;
65597;SDS011;52267;51.984;20.956;2023-06-22T04:21:06;43.80;;;31.10;;
65597;SDS011;52267;51.984;20.956;2023-06-22T04:23:36;43.40;;;30.80;;
65597;SDS011;52267;51.984;20.956;2023-06-22T04:26:03;40.20;;;30.30;;
65597;SDS011;52267;51.984;20.956;2023-06-22T04:28:30;35.60;;;26.80;;
65597;SDS011;52267;51.984;20.956;2023-06-22T04:31:02;41.70;;;29.80;;
65597;SDS011;52267;51.984;20.956;2023-06-22T04:33:29;43.10;;;30.60;;
65597;SDS011;52267;51.984;20.956;2023-06-22T04:35:58;36.00;;;28.00;;
65597;SDS011;52267;51.984;20.956;2023-06-22T04:38:27;42.10;;;29.50;;
65597;SDS011;52267;51.984;20.956;2023-06-22T04:40:54;38.40;;;29.20;;
65597;SDS011;52267;51.984;20.956;2023-06-22T04:43:21;36.10;;;28.40;;
65597;SDS011;52267;51.984;20.956;2023-06-22T04:45:48;37.70;;;28.60;;
65597;SDS011;52267;51.984;20.956;2023-06-22T04:48:18;37.60;;;27.50;;
65597;SDS011;52267;51.984;20.956;2023-06-22T04:50:46;36.00;;;26.20;;
65597;SDS011;52267;51.984;20.956;2023-06-22T04:53:13;35.40;;;26.90;;
65597;SDS011;52267;51.984;20.956;2023-06-22T04:55:40;36.00;;;26.80;;
65597;SDS011;52267;51.984;20.956;2023-06-22T04:58:08;34.50;;;26.80;;
65597;SDS011;52267;51.984;20.956;2023-06-22T05:00:35;30.30;;;24.80;;
65597;SDS011;52267;51.984;20.956;2023-06-22T05:03:05;34.60;;;26.80;;
65597;SDS011;52267;51.984;20.956;2023-06-22T05:05:33;37.40;;;27.40;;
65597;SDS011;52267;51.984;20.956;2023-06-22T05:08:00;32.40;;;25.20;;
65597;SDS011;52267;51.984;20.956;2023-06-22T05:10:28;31.30;;;24.00;;
65597;SDS011;52267;51.984;20.956;2023-06-22T05:12:55;31.10;;;24.90;;
65597;SDS011;52267;51.984;20.956;2023-06-22T05:15:22;32.30;;;24.50;;
65597;SDS011;52267;51.984;20.956;2023-06-22T05:17:53;32.50;;;23.80;;
65597;SDS011;52267;51.984;20.956;2023-06-22T05:20:20;29.50;;;23.10;;
65597;SDS011;52267;51.984;20.956;2023-06-22T05:22:49;31.40;;;22.80;;
65597;SDS011;52267;51.984;20.956;2023-06-22T05:25:16;32.60;;;24.70;;
65597;SDS011;52267;51.984;20.956;2023-06-22T05:27:43;29.70;;;21.80;;
65597;SDS011;52267;51.984;20.956;2023-06-22T05:30:11;30.20;;;23.80;;
65597;SDS011;52267;51.984;20.956;2023-06-22T05:32:38;28.50;;;21.60;;
65597;SDS011;52267;51.984;20.956;2023-06-22T05:35:05;32.20;;;23.70;;
65597;SDS011;52267;51.984;20.956;2023-06-22T05:37:33;31.90;;;22.50;;
65597;SDS011;52267;51.984;20.956;2023-06-22T05:40:00;29.50;;;22.80;;
65597;SDS011;52267;51.984;20.956;2023-06-22T05:42:28;29.80;;;22.50;;
65597;SDS011;52267;51.984;20.956;2023-06-22T05:44:55;33.40;;;23.30;;
65597;SDS011;52267;51.984;20.956;2023-06-22T05:47:22;34.90;;;25.50;;
65597;SDS011;52267;51.984;20.956;2023-06-22T05:49:49;31.30;;;22.60;;
65597;SDS011;52267;51.984;20.956;2023-06-22T05:52:16;27.20;;;21.50;;
65597;SDS011;52267;51.984;20.956;2023-06-22T05:54:44;28.50;;;21.30;;
65597;SDS011;52267;51.984;20.956;2023-06-22T05:57:11;25.00;;;19.50;;
65597;SDS011;52267;51.984;20.956;2023-06-22T05:59:38;27.80;;;20.20;;
65597;SDS011;52267;51.984;20.956;2023-06-22T06:02:05;27.00;;;21.70;;
65597;SDS011;52267;51.984;20.956;2023-06-22T06:04:32;25.50;;;21.10;;
65597;SDS011;52267;51.984;20.956;2023-06-22T06:06:59;24.30;;;18.70;;
65597;SDS011;52267;51.984;20.956;2023-06-22T06:09:26;23.20;;;19.50;;
65597;SDS011;52267;51.984;20.956;2023-06-22T06:11:53;30.60;;;24.30;;
65597;SDS011;52267;51.984;20.956;2023-06-22T06:14:20;29.50;;;21.60;;
65597;SDS011;52267;51.984;20.956;2023-06-22T06:16:49;28.10;;;21.50;;
65597;SDS011;52267;51.984;20.956;2023-06-22T06:19:16;27.20;;;20.40;;
65597;SDS011;52267;51.984;20.956;2023-06-22T06:21:43;26.30;;;20.50;;
65597;SDS011;52267;51.984;20.956;2023-06-22T06:24:11;26.00;;;19.50;;
65597;SDS011;52267;51.984;20.956;2023-06-22T06:26:38;29.10;;;20.20;;
65597;SDS011;52267;51.984;20.956;2023-06-22T06:29:05;23.90;;;19.00;;
65597;SDS011;52267;51.984;20.956;2023-06-22T06:31:32;21.50;;;17.40;;
65597;SDS011;52267;51.984;20.956;2023-06-22T06:33:59;25.70;;;20.70;;
65597;SDS011;52267;51.984;20.956;2023-06-22T06:36:26;24.90;;;18.90;;
65597;SDS011;52267;51.984;20.956;2023-06-22T06:38:53;23.90;;;18.10;;
65597;SDS011;52267;51.984;20.956;2023-06-22T06:41:21;26.10;;;20.40;;
65597;SDS011;52267;51.984;20.956;2023-06-22T06:43:48;22.00;;;17.60;;
65597;SDS011;52267;51.984;20.956;2023-06-22T06:46:15;21.20;;;15.60;;
65597;SDS011;52267;51.984;20.956;2023-06-22T06:48:42;25.60;;;18.30;;
65597;SDS011;52267;51.984;20.956;2023-06-22T06:51:09;19.50;;;16.20;;
65597;SDS011;52267;51.984;20.956;2023-06-22T06:53:37;21.80;;;15.60;;
65597;SDS011;52267;51.984;20.956;2023-06-22T06:56:05;18.10;;;14.60;;
65597;SDS011;52267;51.984;20.956;2023-06-22T06:58:32;25.70;;;15.90;;
65597;SDS011;52267;51.984;20.956;2023-06-22T07:00:59;21.90;;;15.00;;
65597;SDS011;52267;51.984;20.956;2023-06-22T07:03:26;18.20;;;14.40;;
65597;SDS011;52267;51.984;20.956;2023-06-22T07:05:53;21.30;;;16.30;;
65597;SDS011;52267;51.984;20.956;2023-06-22T07:08:20;17.60;;;13.50;;
65597;SDS011;52267;51.984;20.956;2023-06-22T07:10:47;14.20;;;11.90;;
65597;SDS011;52267;51.984;20.956;2023-06-22T07:13:15;15.70;;;12.00;;
65597;SDS011;52267;51.984;20.956;2023-06-22T07:15:42;12.90;;;10.40;;
65597;SDS011;52267;51.984;20.956;2023-06-22T07:18:09;13.30;;;11.10;;
65597;SDS011;52267;51.984;20.956;2023-06-22T07:20:36;15.60;;;11.20;;
65597;SDS011;52267;51.984;20.956;2023-06-22T07:23:07;11.80;;;9.50;;
65597;SDS011;52267;51.984;20.956;2023-06-22T07:25:34;11.90;;;9.70;;
65597;SDS011;52267;51.984;20.956;2023-06-22T07:28:03;11.30;;;10.00;;
65597;SDS011;52267;51.984;20.956;2023-06-22T07:30:32;11.60;;;9.00;;
65597;SDS011;52267;51.984;20.956;2023-06-22T07:33:01;12.10;;;9.10;;
65597;SDS011;52267;51.984;20.956;2023-06-22T07:35:30;11.40;;;8.80;;
65597;SDS011;52267;51.984;20.956;2023-06-22T07:37:57;9.80;;;7.90;;
65597;SDS011;52267;51.984;20.956;2023-06-22T07:40:25;10.00;;;8.70;;
65597;SDS011;52267;51.984;20.956;2023-06-22T07:42:52;10.60;;;8.80;;
65597;SDS011;52267;51.984;20.956;2023-06-22T07:45:20;11.60;;;8.80;;
65597;SDS011;52267;51.984;20.956;2023-06-22T07:47:47;10.10;;;8.10;;
65597;SDS011;52267;51.984;20.956;2023-06-22T07:50:14;12.40;;;8.20;;
65597;SDS011;52267;51.984;20.956;2023-06-22T07:52:41;11.90;;;8.00;;
65597;SDS011;52267;51.984;20.956;2023-06-22T07:55:08;9.10;;;7.00;;
65597;SDS011;52267;51.984;20.956;2023-06-22T07:57:35;8.00;;;6.50;;
65597;SDS011;52267;51.984;20.956;2023-06-22T08:00:05;10.10;;;7.10;;
65597;SDS011;52267;51.984;20.956;2023-06-22T08:02:45;10.70;;;6.40;;
65597;SDS011;52267;51.984;20.956;2023-06-22T08:05:14;7.10;;;5.60;;
65597;SDS011;52267;51.984;20.956;2023-06-22T08:07:41;6.70;;;5.40;;
65597;SDS011;52267;51.984;20.956;2023-06-22T08:10:11;9.10;;;6.00;;
65597;SDS011;52267;51.984;20.956;2023-06-22T08:12:40;7.70;;;6.10;;
65597;SDS011;52267;51.984;20.956;2023-06-22T08:15:08;7.40;;;5.80;;
65597;SDS011;52267;51.984;20.956;2023-06-22T08:17:39;10.10;;;6.50;;
65597;SDS011;52267;51.984;20.956;2023-06-22T08:20:07;8.60;;;6.70;;
65597;SDS011;52267;51.984;20.956;2023-06-22T08:22:43;7.40;;;6.20;;
65597;SDS011;52267;51.984;20.956;2023-06-22T08:25:10;7.10;;;5.90;;
65597;SDS011;52267;51.984;20.956;2023-06-22T08:27:38;7.50;;;4.90;;
65597;SDS011;52267;51.984;20.956;2023-06-22T08:30:06;7.10;;;5.20;;
65597;SDS011;52267;51.984;20.956;2023-06-22T08:32:34;7.40;;;4.50;;
65597;SDS011;52267;51.984;20.956;2023-06-22T08:35:01;5.70;;;4.50;;
65597;SDS011;52267;51.984;20.956;2023-06-22T08:37:28;6.90;;;4.70;;
65597;SDS011;52267;51.984;20.956;2023-06-22T08:40:03;5.60;;;4.20;;
65597;SDS011;52267;51.984;20.956;2023-06-22T08:45:00;7.80;;;4.60;;
65597;SDS011;52267;51.984;20.956;2023-06-22T08:47:28;6.50;;;4.20;;
65597;SDS011;52267;51.984;20.956;2023-06-22T08:49:55;6.40;;;4.30;;
65597;SDS011;52267;51.984;20.956;2023-06-22T08:52:23;6.00;;;4.40;;
65597;SDS011;52267;51.984;20.956;2023-06-22T08:54:50;4.70;;;3.20;;
65597;SDS011;52267;51.984;20.956;2023-06-22T08:57:18;5.70;;;4.20;;
65597;SDS011;52267;51.984;20.956;2023-06-22T08:59:45;6.70;;;3.90;;
65597;SDS011;52267;51.984;20.956;2023-06-22T09:02:12;6.00;;;3.50;;
65597;SDS011;52267;51.984;20.956;2023-06-22T09:04:39;6.70;;;3.70;;
65597;SDS011;52267;51.984;20.956;2023-06-22T09:07:06;7.30;;;4.10;;
65597;SDS011;52267;51.984;20.956;2023-06-22T09:09:33;6.50;;;4.20;;
65597;SDS011;52267;51.984;20.956;2023-06-22T09:12:00;6.20;;;4.10;;
65597;SDS011;52267;51.984;20.956;2023-06-22T09:14:27;6.30;;;4.40;;
65597;SDS011;52267;51.984;20.956;2023-06-22T09:16:54;6.20;;;3.50;;
65597;SDS011;52267;51.984;20.956;2023-06-22T09:19:22;6.40;;;4.20;;
65597;SDS011;52267;51.984;20.956;2023-06-22T09:21:49;6.90;;;3.30;;
65597;SDS011;52267;51.984;20.956;2023-06-22T09:24:16;4.80;;;3.20;;
65597;SDS011;52267;51.984;20.956;2023-06-22T09:26:43;5.20;;;3.40;;
65597;SDS011;52267;51.984;20.956;2023-06-22T09:29:10;5.00;;;3.40;;
65597;SDS011;52267;51.984;20.956;2023-06-22T09:31:37;5.10;;;3.30;;
65597;SDS011;52267;51.984;20.956;2023-06-22T09:34:04;5.80;;;3.50;;
65597;SDS011;52267;51.984;20.956;2023-06-22T09:36:31;4.50;;;3.70;;
65597;SDS011;52267;51.984;20.956;2023-06-22T09:38:58;5.40;;;3.90;;
65597;SDS011;52267;51.984;20.956;2023-06-22T09:41:28;4.60;;;3.40;;
65597;SDS011;52267;51.984;20.956;2023-06-22T09:43:55;7.00;;;3.80;;
65597;SDS011;52267;51.984;20.956;2023-06-22T09:46:23;6.60;;;3.70;;
65597;SDS011;52267;51.984;20.956;2023-06-22T09:48:52;5.30;;;3.70;;
65597;SDS011;52267;51.984;20.956;2023-06-22T09:51:19;6.40;;;3.80;;
65597;SDS011;52267;51.984;20.956;2023-06-22T09:53:51;5.80;;;3.70;;
65597;SDS011;52267;51.984;20.956;2023-06-22T10:03:07;4.50;;;3.00;;
65597;SDS011;52267;51.984;20.956;2023-06-22T10:05:35;5.20;;;3.00;;
65597;SDS011;52267;51.984;20.956;2023-06-22T10:08:03;5.70;;;3.60;;
65597;SDS011;52267;51.984;20.956;2023-06-22T10:10:30;5.10;;;3.30;;
65597;SDS011;52267;51.984;20.956;2023-06-22T10:13:06;3.90;;;2.90;;
65597;SDS011;52267;51.984;20.956;2023-06-22T10:15:38;6.00;;;2.70;;
65597;SDS011;52267;51.984;20.956;2023-06-22T10:18:05;4.10;;;2.30;;
65597;SDS011;52267;51.984;20.956;2023-06-22T10:20:33;5.70;;;2.90;;
65597;SDS011;52267;51.984;20.956;2023-06-22T10:23:00;4.00;;;2.60;;
65597;SDS011;52267;51.984;20.956;2023-06-22T10:25:27;4.00;;;2.40;;
65597;SDS011;52267;51.984;20.956;2023-06-22T10:27:54;3.50;;;2.50;;
65597;SDS011;52267;51.984;20.956;2023-06-22T10:30:21;5.40;;;3.20;;
65597;SDS011;52267;51.984;20.956;2023-06-22T10:32:49;5.00;;;3.00;;
65597;SDS011;52267;51.984;20.956;2023-06-22T10:35:16;5.30;;;3.00;;
65597;SDS011;52267;51.984;20.956;2023-06-22T10:37:44;4.80;;;3.00;;
65597;SDS011;52267;51.984;20.956;2023-06-22T10:40:16;5.00;;;2.90;;
65597;SDS011;52267;51.984;20.956;2023-06-22T10:42:45;4.90;;;2.80;;
65597;SDS011;52267;51.984;20.956;2023-06-22T10:45:13;5.10;;;3.10;;
65597;SDS011;52267;51.984;20.956;2023-06-22T10:47:40;5.10;;;2.80;;
65597;SDS011;52267;51.984;20.956;2023-06-22T10:50:09;4.50;;;3.30;;
65597;SDS011;52267;51.984;20.956;2023-06-22T10:52:36;4.10;;;2.40;;
65597;SDS011;52267;51.984;20.956;2023-06-22T10:55:04;4.00;;;2.70;;
65597;SDS011;52267;51.984;20.956;2023-06-22T10:57:31;4.00;;;3.00;;
65597;SDS011;52267;51.984;20.956;2023-06-22T10:59:59;5.20;;;3.30;;
65597;SDS011;52267;51.984;20.956;2023-06-22T11:02:26;4.50;;;3.10;;
65597;SDS011;52267;51.984;20.956;2023-06-22T11:04:54;5.80;;;3.40;;
65597;SDS011;52267;51.984;20.956;2023-06-22T11:07:22;4.50;;;3.30;;
65597;SDS011;52267;51.984;20.956;2023-06-22T11:09:49;5.70;;;3.90;;
65597;SDS011;52267;51.984;20.956;2023-06-22T11:12:16;5.70;;;3.60;;
65597;SDS011;52267;51.984;20.956;2023-06-22T11:14:43;5.50;;;3.50;;
65597;SDS011;52267;51.984;20.956;2023-06-22T11:17:10;4.80;;;3.80;;
65597;SDS011;52267;51.984;20.956;2023-06-22T11:19:37;5.70;;;3.40;;
65597;SDS011;52267;51.984;20.956;2023-06-22T11:22:04;6.50;;;3.00;;
65597;SDS011;52267;51.984;20.956;2023-06-22T11:24:32;5.90;;;3.30;;
65597;SDS011;52267;51.984;20.956;2023-06-22T11:26:59;4.70;;;3.50;;
65597;SDS011;52267;51.984;20.956;2023-06-22T11:29:26;5.30;;;3.90;;
65597;SDS011;52267;51.984;20.956;2023-06-22T11:31:53;6.20;;;4.20;;
65597;SDS011;52267;51.984;20.956;2023-06-22T11:34:20;5.60;;;3.40;;
65597;SDS011;52267;51.984;20.956;2023-06-22T11:36:47;6.10;;;3.60;;
65597;SDS011;52267;51.984;20.956;2023-06-22T11:39:14;4.50;;;3.00;;
65597;SDS011;52267;51.984;20.956;2023-06-22T11:41:42;5.30;;;3.20;;
65597;SDS011;52267;51.984;20.956;2023-06-22T11:44:09;4.60;;;3.40;;
65597;SDS011;52267;51.984;20.956;2023-06-22T11:46:36;5.90;;;3.50;;
65597;SDS011;52267;51.984;20.956;2023-06-22T11:49:03;5.10;;;3.30;;
65597;SDS011;52267;51.984;20.956;2023-06-22T11:51:31;5.70;;;3.80;;
65597;SDS011;52267;51.984;20.956;2023-06-22T11:53:58;5.60;;;4.00;;
65597;SDS011;52267;51.984;20.956;2023-06-22T11:56:25;5.20;;;3.40;;
65597;SDS011;52267;51.984;20.956;2023-06-22T11:58:54;6.10;;;3.60;;
65597;SDS011;52267;51.984;20.956;2023-06-22T12:01:21;5.50;;;3.20;;
65597;SDS011;52267;51.984;20.956;2023-06-22T12:03:48;5.30;;;3.50;;
65597;SDS011;52267;51.984;20.956;2023-06-22T12:06:15;5.30;;;3.60;;
65597;SDS011;52267;51.984;20.956;2023-06-22T12:08:42;4.80;;;3.50;;
65597;SDS011;52267;51.984;20.956;2023-06-22T12:11:09;4.90;;;3.80;;
65597;SDS011;52267;51.984;20.956;2023-06-22T12:13:36;5.70;;;3.40;;
65597;SDS011;52267;51.984;20.956;2023-06-22T12:16:03;5.80;;;3.80;;
65597;SDS011;52267;51.984;20.956;2023-06-22T12:18:32;6.40;;;3.70;;
65597;SDS011;52267;51.984;20.956;2023-06-22T12:20:59;6.80;;;3.70;;
65597;SDS011;52267;51.984;20.956;2023-06-22T12:23:27;5.40;;;3.80;;
65597;SDS011;52267;51.984;20.956;2023-06-22T12:25:54;6.20;;;4.60;;
65597;SDS011;52267;51.984;20.956;2023-06-22T12:28:21;5.50;;;3.60;;
65597;SDS011;52267;51.984;20.956;2023-06-22T12:30:50;5.00;;;3.90;;
65597;SDS011;52267;51.984;20.956;2023-06-22T12:33:17;6.50;;;4.10;;
65597;SDS011;52267;51.984;20.956;2023-06-22T12:35:44;4.90;;;3.70;;
65597;SDS011;52267;51.984;20.956;2023-06-22T12:38:12;6.70;;;4.20;;
65597;SDS011;52267;51.984;20.956;2023-06-22T12:40:39;5.70;;;4.00;;
65597;SDS011;52267;51.984;20.956;2023-06-22T12:43:06;6.30;;;4.50;;
65597;SDS011;52267;51.984;20.956;2023-06-22T12:45:34;6.70;;;4.10;;
65597;SDS011;52267;51.984;20.956;2023-06-22T12:48:01;6.60;;;4.40;;
65597;SDS011;52267;51.984;20.956;2023-06-22T12:50:28;5.10;;;3.70;;
65597;SDS011;52267;51.984;20.956;2023-06-22T12:52:55;6.00;;;4.10;;
65597;SDS011;52267;51.984;20.956;2023-06-22T12:55:22;5.40;;;3.80;;
65597;SDS011;52267;51.984;20.956;2023-06-22T12:57:49;5.50;;;4.20;;
65597;SDS011;52267;51.984;20.956;2023-06-22T13:00:17;6.70;;;4.60;;
65597;SDS011;52267;51.984;20.956;2023-06-22T13:02:45;4.90;;;3.90;;
65597;SDS011;52267;51.984;20.956;2023-06-22T13:05:12;6.60;;;4.60;;
65597;SDS011;52267;51.984;20.956;2023-06-22T13:07:39;5.80;;;4.20;;
65597;SDS011;52267;51.984;20.956;2023-06-22T13:10:07;5.80;;;4.30;;
65597;SDS011;52267;51.984;20.956;2023-06-22T13:12:34;6.80;;;4.30;;
65597;SDS011;52267;51.984;20.956;2023-06-22T13:15:01;5.20;;;4.10;;
65597;SDS011;52267;51.984;20.956;2023-06-22T13:17:29;6.40;;;3.90;;
65597;SDS011;52267;51.984;20.956;2023-06-22T13:19:57;10.90;;;4.00;;
65597;SDS011;52267;51.984;20.956;2023-06-22T13:22:29;4.80;;;3.80;;
65597;SDS011;52267;51.984;20.956;2023-06-22T13:24:59;5.20;;;3.70;;
65597;SDS011;52267;51.984;20.956;2023-06-22T13:27:26;6.10;;;3.40;;
65597;SDS011;52267;51.984;20.956;2023-06-22T13:29:53;4.90;;;3.30;;
65597;SDS011;52267;51.984;20.956;2023-06-22T13:32:21;5.80;;;3.20;;
65597;SDS011;52267;51.984;20.956;2023-06-22T13:34:48;4.40;;;3.10;;
65597;SDS011;52267;51.984;20.956;2023-06-22T13:37:15;5.10;;;3.80;;
65597;SDS011;52267;51.984;20.956;2023-06-22T13:39:42;5.30;;;3.30;;
65597;SDS011;52267;51.984;20.956;2023-06-22T13:42:09;5.10;;;4.20;;
65597;SDS011;52267;51.984;20.956;2023-06-22T13:44:36;6.80;;;4.00;;
65597;SDS011;52267;51.984;20.956;2023-06-22T13:47:04;5.30;;;3.70;;
65597;SDS011;52267;51.984;20.956;2023-06-22T13:49:31;5.90;;;3.80;;
65597;SDS011;52267;51.984;20.956;2023-06-22T13:51:59;5.30;;;3.80;;
65597;SDS011;52267;51.984;20.956;2023-06-22T13:54:26;4.70;;;3.90;;
65597;SDS011;52267;51.984;20.956;2023-06-22T13:56:53;5.00;;;3.40;;
65597;SDS011;52267;51.984;20.956;2023-06-22T13:59:21;6.00;;;3.70;;
65597;SDS011;52267;51.984;20.956;2023-06-22T14:01:48;8.50;;;4.20;;
65597;SDS011;52267;51.984;20.956;2023-06-22T14:04:15;4.50;;;3.20;;
65597;SDS011;52267;51.984;20.956;2023-06-22T14:06:42;5.50;;;3.70;;
65597;SDS011;52267;51.984;20.956;2023-06-22T14:09:10;5.30;;;3.30;;
65597;SDS011;52267;51.984;20.956;2023-06-22T14:11:37;7.10;;;3.60;;
65597;SDS011;52267;51.984;20.956;2023-06-22T14:14:04;4.30;;;3.50;;
65597;SDS011;52267;51.984;20.956;2023-06-22T14:16:31;6.20;;;3.80;;
65597;SDS011;52267;51.984;20.956;2023-06-22T14:18:58;5.30;;;4.00;;
65597;SDS011;52267;51.984;20.956;2023-06-22T14:21:26;6.20;;;3.90;;
65597;SDS011;52267;51.984;20.956;2023-06-22T14:23:53;4.70;;;3.80;;
65597;SDS011;52267;51.984;20.956;2023-06-22T14:26:20;4.60;;;3.70;;
65597;SDS011;52267;51.984;20.956;2023-06-22T14:28:48;4.70;;;3.90;;
65597;SDS011;52267;51.984;20.956;2023-06-22T14:31:19;6.30;;;3.90;;
65597;SDS011;52267;51.984;20.956;2023-06-22T14:33:48;6.70;;;4.30;;
65597;SDS011;52267;51.984;20.956;2023-06-22T14:36:16;5.80;;;4.40;;
65597;SDS011;52267;51.984;20.956;2023-06-22T14:38:46;6.90;;;4.50;;
65597;SDS011;52267;51.984;20.956;2023-06-22T14:41:13;5.90;;;3.90;;
65597;SDS011;52267;51.984;20.956;2023-06-22T14:43:45;5.30;;;4.00;;